Time;durP1;ratioP1;P1;durP2;ratioP2;P2;SDS_P1;SDS_P2;PMS_P1;PMS_P2;Temp;Humidity;BMP_temperature;BMP_pressure;BME280_temperature;BME280_humidity;BME280_pressure;Samples;Min_cycle;Max_cycle;Signal;HPM_P1;HPM_P2
2024/01/17 00:04:21;;;;;;;;;;;-1.00;99.90;;;;;;20848991;28;19917;-74
2024/01/17 00:14:22;;;;;;;;;;;-1.00;99.90;;;;;;20849421;28;20000;-74
2024/01/17 00:24:23;;;;;;;;;;;-0.90;99.90;;;;;;20849067;28;20323;-74
2024/01/17 00:34:24;;;;;;;;;;;-0.90;99.90;;;;;;20832296;28;19959;-74
2024/01/17 00:44:27;;;;;;;;;;;-0.80;99.90;;;;;;20841286;28;20396;-74
2024/01/17 00:54:27;;;;;;;;;;;-0.80;99.90;;;;;;20862203;28;20313;-74
2024/01/17 01:04:28;;;;;;;;;;;-0.80;99.90;;;;;;20872247;28;19916;-74
2024/01/17 01:14:29;;;;;;;;;;;-0.80;99.90;;;;;;20854276;28;19959;-74
2024/01/17 01:24:29;;;;;;;;;;;-0.80;99.90;;;;;;20857780;28;19924;-74
2024/01/17 01:34:30;;;;;;;;;;;-0.80;99.90;;;;;;20852958;28;19924;-74
2024/01/17 01:44:32;;;;;;;;;;;-0.80;99.90;;;;;;20854567;28;21421;-74
2024/01/17 01:54:34;;;;;;;;;;;-0.80;99.90;;;;;;20860430;28;19920;-73
2024/01/17 02:04:35;;;;;;;;;;;-0.70;99.90;;;;;;20836854;28;20276;-74
2024/01/17 02:14:39;;;;;;;;;;;-0.60;99.90;;;;;;20855017;28;19913;-73
2024/01/17 02:24:39;;;;;;;;;;;-0.60;99.90;;;;;;20868849;28;20338;-72
2024/01/17 02:34:40;;;;;;;;;;;-0.40;99.90;;;;;;20861061;28;19917;-73
2024/01/17 02:44:41;;;;;;;;;;;-0.40;99.90;;;;;;20862361;28;19917;-73
2024/01/17 02:54:41;;;;;;;;;;;-0.30;99.90;;;;;;20855046;28;19913;-73
2024/01/17 03:04:42;;;;;;;;;;;-0.30;99.90;;;;;;20832554;28;19928;-74
2024/01/17 03:14:43;;;;;;;;;;;-0.20;99.90;;;;;;20850114;28;19913;-74
2024/01/17 03:24:46;;;;;;;;;;;-0.20;99.90;;;;;;20862987;28;19940;-73
2024/01/17 03:34:47;;;;;;;;;;;-0.30;99.90;;;;;;20856230;28;20423;-74
2024/01/17 03:44:48;;;;;;;;;;;-0.20;99.90;;;;;;20838426;28;19927;-74
2024/01/17 03:54:48;;;;;;;;;;;-0.20;99.90;;;;;;20859229;28;19957;-73
2024/01/17 04:04:49;;;;;;;;;;;-0.30;99.90;;;;;;20868810;28;19917;-73
2024/01/17 04:14:50;;;;;;;;;;;-0.30;99.90;;;;;;20850357;28;19996;-73
2024/01/17 04:24:50;;;;;;;;;;;-0.10;99.90;;;;;;20869961;28;19917;-73
2024/01/17 04:34:51;;;;;;;;;;;0.00;99.90;;;;;;20841538;28;19917;-74
2024/01/17 04:44:52;;;;;;;;;;;0.00;99.90;;;;;;20835824;28;19917;-74
2024/01/17 04:54:53;;;;;;;;;;;0.10;99.90;;;;;;20840482;28;20415;-74
2024/01/17 05:04:54;;;;;;;;;;;0.20;99.90;;;;;;20856786;28;20022;-72
2024/01/17 05:14:54;;;;;;;;;;;0.30;99.90;;;;;;20882583;28;19912;-72
2024/01/17 05:24:55;;;;;;;;;;;0.20;99.90;;;;;;20858750;28;19952;-75
2024/01/17 05:34:56;;;;;;;;;;;0.20;99.90;;;;;;20847919;28;20556;-74
2024/01/17 05:44:56;;;;;;;;;;;0.10;99.90;;;;;;20893849;28;19917;-74
2024/01/17 05:54:57;;;;;;;;;;;0.20;99.90;;;;;;20917707;28;19913;-76
2024/01/17 06:04:58;;;;;;;;;;;0.20;99.90;;;;;;20913284;28;19921;-73
2024/01/17 06:14:58;;;;;;;;;;;0.20;99.90;;;;;;20867978;28;19923;-76
2024/01/17 06:24:59;;;;;;;;;;;0.30;99.90;;;;;;20876913;28;19924;-76
2024/01/17 06:34:59;;;;;;;;;;;0.30;99.90;;;;;;20864720;28;19917;-75
2024/01/17 06:45:00;;;;;;;;;;;0.40;99.90;;;;;;20847012;28;19917;-75
2024/01/17 06:55:01;;;;;;;;;;;0.40;99.90;;;;;;20874728;28;19928;-76
2024/01/17 07:05:01;;;;;;;;;;;0.40;99.90;;;;;;20877316;28;20394;-77
2024/01/17 07:15:02;;;;;;;;;;;0.40;99.90;;;;;;20877088;28;19975;-76
2024/01/17 07:25:03;;;;;;;;;;;0.40;99.90;;;;;;20821075;28;20343;-77
2024/01/17 07:35:04;;;;;;;;;;;0.40;99.90;;;;;;20821644;28;19924;-76
2024/01/17 07:45:06;;;;;;;;;;;0.50;99.90;;;;;;20817973;28;19924;-75
2024/01/17 07:55:07;;;;;;;;;;;0.50;99.90;;;;;;20869052;28;19920;-77
2024/01/17 08:05:08;;;;;;;;;;;0.50;99.90;;;;;;20866119;28;19917;-76
2024/01/17 08:15:08;;;;;;;;;;;0.50;99.90;;;;;;20893585;28;19923;-77
2024/01/17 08:25:09;;;;;;;;;;;0.50;99.90;;;;;;20914003;28;19923;-77
2024/01/17 08:35:11;;;;;;;;;;;0.50;99.90;;;;;;20915571;28;19928;-78
2024/01/17 08:45:11;;;;;;;;;;;0.50;99.90;;;;;;20911735;28;19938;-78
2024/01/17 08:55:12;;;;;;;;;;;0.50;99.90;;;;;;20905861;28;19919;-77
2024/01/17 09:05:13;;;;;;;;;;;0.50;99.90;;;;;;20919959;28;20362;-78
2024/01/17 09:15:14;;;;;;;;;;;0.60;99.90;;;;;;20922711;28;19920;-78
2024/01/17 09:25:14;;;;;;;;;;;0.70;99.90;;;;;;20923016;28;19924;-77
2024/01/17 09:35:15;;;;;;;;;;;0.80;99.90;;;;;;20943336;28;19917;-77
2024/01/17 09:45:17;;;;;;;;;;;0.80;99.90;;;;;;20927311;28;19916;-77
2024/01/17 09:55:19;;;;;;;;;;;0.90;99.90;;;;;;20917209;28;20011;-77
2024/01/17 10:05:21;;;;;;;;;;;0.90;99.90;;;;;;20895466;28;19917;-77
2024/01/17 10:15:25;;;;;;;;;;;1.00;99.90;;;;;;20883388;28;20063;-77
2024/01/17 10:25:26;;;;;;;;;;;0.90;99.90;;;;;;20902613;28;19924;-77
2024/01/17 10:35:27;;;;;;;;;;;1.00;99.90;;;;;;20909088;28;20419;-77
2024/01/17 10:45:32;;;;;;;;;;;1.00;99.90;;;;;;20914639;28;19916;-77
2024/01/17 10:55:34;;;;;;;;;;;1.00;99.90;;;;;;20917461;28;19939;-77
2024/01/17 11:05:42;;;;;;;;;;;1.10;99.90;;;;;;20886551;28;19925;-75
2024/01/17 11:15:44;;;;;;;;;;;1.10;99.90;;;;;;20905707;28;20051;-76
2024/01/17 11:25:50;;;;;;;;;;;1.10;99.90;;;;;;20888675;28;19916;-77
2024/01/17 11:35:52;;;;;;;;;;;1.30;99.90;;;;;;20877787;28;19923;-77
2024/01/17 11:45:53;;;;;;;;;;;1.40;99.90;;;;;;20891458;28;19978;-76
2024/01/17 11:55:58;;;;;;;;;;;1.60;99.90;;;;;;20900374;28;19917;-76
2024/01/17 12:05:59;;;;;;;;;;;1.90;99.90;;;;;;20904625;28;19927;-77
2024/01/17 12:15:59;;;;;;;;;;;2.10;99.90;;;;;;20901692;28;19913;-76
2024/01/17 12:26:00;;;;;;;;;;;2.10;99.90;;;;;;20906419;28;19917;-75
2024/01/17 12:36:02;;;;;;;;;;;2.10;99.90;;;;;;20903590;28;19965;-76
2024/01/17 12:46:03;;;;;;;;;;;2.30;99.90;;;;;;20909272;28;19917;-76
2024/01/17 12:56:05;;;;;;;;;;;2.30;99.90;;;;;;20912753;28;19999;-77
2024/01/17 13:06:08;;;;;;;;;;;2.30;99.90;;;;;;20912320;28;19966;-77
2024/01/17 13:16:09;;;;;;;;;;;2.30;99.90;;;;;;20902680;28;20383;-75
2024/01/17 13:26:11;;;;;;;;;;;2.40;99.90;;;;;;20892504;28;19942;-77
2024/01/17 13:36:12;;;;;;;;;;;2.60;99.90;;;;;;20890301;28;19917;-77
2024/01/17 13:46:13;;;;;;;;;;;2.60;99.90;;;;;;20898895;28;19917;-75
2024/01/17 13:56:13;;;;;;;;;;;2.70;99.90;;;;;;20891220;28;19914;-76
2024/01/17 14:06:14;;;;;;;;;;;2.80;99.90;;;;;;20900277;28;19917;-75
2024/01/17 14:16:15;;;;;;;;;;;3.00;99.90;;;;;;20915252;28;19913;-75
2024/01/17 14:26:18;;;;;;;;;;;3.10;99.90;;;;;;20915614;28;19924;-76
2024/01/17 14:36:19;;;;;;;;;;;3.20;99.90;;;;;;20882571;28;19964;-76
2024/01/17 14:46:19;;;;;;;;;;;3.20;99.90;;;;;;20890018;28;20410;-75
2024/01/17 14:56:20;;;;;;;;;;;3.10;99.90;;;;;;20912555;28;19913;-75
2024/01/17 15:06:21;;;;;;;;;;;3.00;99.90;;;;;;20904112;28;19917;-76
2024/01/17 15:16:23;;;;;;;;;;;3.10;99.90;;;;;;20910580;28;19913;-76
2024/01/17 15:26:27;;;;;;;;;;;3.10;99.90;;;;;;20902881;28;20335;-77
2024/01/17 15:36:27;;;;;;;;;;;3.20;99.90;;;;;;20907028;28;20006;-77
2024/01/17 15:46:28;;;;;;;;;;;3.20;99.90;;;;;;20908486;28;19917;-77
2024/01/17 15:56:29;;;;;;;;;;;3.20;99.90;;;;;;20876243;28;20395;-78
2024/01/17 16:06:31;;;;;;;;;;;3.30;99.90;;;;;;20861642;28;20035;-77
2024/01/17 16:16:32;;;;;;;;;;;3.20;99.90;;;;;;20906843;28;20507;-76
2024/01/17 16:26:32;;;;;;;;;;;3.10;99.90;;;;;;20898740;28;19971;-77
2024/01/17 16:36:33;;;;;;;;;;;3.30;99.90;;;;;;20888450;28;19916;-77
2024/01/17 16:46:34;;;;;;;;;;;3.40;99.90;;;;;;20879676;28;19921;-78
2024/01/17 16:56:35;;;;;;;;;;;3.50;99.90;;;;;;20889631;28;19913;-77
2024/01/17 17:06:35;;;;;;;;;;;3.30;99.90;;;;;;20904102;28;19975;-77
2024/01/17 17:16:37;;;;;;;;;;;3.50;99.90;;;;;;20896227;28;20354;-78
2024/01/17 17:26:38;;;;;;;;;;;3.60;99.90;;;;;;20902959;28;19963;-79
2024/01/17 17:36:39;;;;;;;;;;;3.40;99.90;;;;;;20881950;28;19921;-78
2024/01/17 17:46:40;;;;;;;;;;;3.30;99.90;;;;;;20923567;28;19975;-78
2024/01/17 17:56:44;;;;;;;;;;;3.30;99.90;;;;;;20909523;28;19917;-78
2024/01/17 18:06:44;;;;;;;;;;;3.30;99.90;;;;;;20909596;28;20459;-79
2024/01/17 18:16:45;;;;;;;;;;;3.20;99.90;;;;;;20893116;28;19920;-77
2024/01/17 18:26:46;;;;;;;;;;;3.30;99.90;;;;;;20916104;28;19917;-78
2024/01/17 18:36:47;;;;;;;;;;;3.40;99.90;;;;;;20930983;28;20288;-79
2024/01/17 18:46:48;;;;;;;;;;;3.50;99.90;;;;;;20907614;28;19960;-78
2024/01/17 18:56:49;;;;;;;;;;;3.50;99.90;;;;;;20862914;28;20350;-78
2024/01/17 19:06:49;;;;;;;;;;;3.50;99.90;;;;;;20848466;28;19920;-79
2024/01/17 19:16:50;;;;;;;;;;;3.60;99.90;;;;;;20873073;28;19913;-78
2024/01/17 19:26:51;;;;;;;;;;;3.60;99.90;;;;;;20911091;28;20249;-77
2024/01/17 19:36:51;;;;;;;;;;;3.80;99.90;;;;;;20894958;28;20326;-77
2024/01/17 19:46:52;;;;;;;;;;;3.80;99.90;;;;;;20897404;28;19917;-79
2024/01/17 19:56:52;;;;;;;;;;;3.90;99.90;;;;;;20911354;28;19921;-79
2024/01/17 20:06:53;;;;;;;;;;;4.50;99.90;;;;;;20918440;28;19920;-78
2024/01/17 20:16:54;;;;;;;;;;;4.10;99.90;;;;;;20887641;28;19917;-79
2024/01/17 20:26:54;;;;;;;;;;;4.00;99.90;;;;;;20900751;28;19924;-78
2024/01/17 20:36:59;;;;;;;;;;;4.00;99.90;;;;;;20909124;28;19917;-78
2024/01/17 20:47:01;;;;;;;;;;;4.10;99.90;;;;;;20917077;28;19924;-76
2024/01/17 20:57:02;;;;;;;;;;;4.30;99.90;;;;;;20917740;28;19940;-76
2024/01/17 21:07:02;;;;;;;;;;;4.20;99.90;;;;;;20919660;28;19916;-78
2024/01/17 21:17:03;;;;;;;;;;;4.50;99.90;;;;;;20939759;28;20004;-78
2024/01/17 21:27:04;;;;;;;;;;;5.00;99.90;;;;;;20929795;28;19917;-76
2024/01/17 21:37:04;;;;;;;;;;;5.00;99.90;;;;;;20928670;28;19931;-78
2024/01/17 21:47:05;;;;;;;;;;;5.30;99.90;;;;;;20883140;28;19917;-77
2024/01/17 21:57:06;;;;;;;;;;;4.80;99.90;;;;;;20864295;28;19986;-78
2024/01/17 22:07:06;;;;;;;;;;;4.60;99.90;;;;;;20879138;28;20360;-78
2024/01/17 22:17:07;;;;;;;;;;;4.80;99.90;;;;;;20888046;28;19920;-78
2024/01/17 22:27:08;;;;;;;;;;;5.20;99.90;;;;;;20896586;28;19971;-79
2024/01/17 22:37:08;;;;;;;;;;;5.00;99.90;;;;;;20900663;28;19939;-79
2024/01/17 22:47:09;;;;;;;;;;;4.70;99.90;;;;;;20890745;28;19927;-79
2024/01/17 22:57:10;;;;;;;;;;;4.90;99.90;;;;;;20895636;28;19923;-80
2024/01/17 23:07:10;;;;;;;;;;;5.10;99.90;;;;;;20895532;28;20015;-79
2024/01/17 23:17:11;;;;;;;;;;;5.10;99.90;;;;;;20891249;28;19939;-79
2024/01/17 23:27:12;;;;;;;;;;;5.40;99.90;;;;;;20902114;28;20411;-79
2024/01/17 23:37:13;;;;;;;;;;;5.20;99.90;;;;;;20873683;28;20391;-79
2024/01/17 23:47:14;;;;;;;;;;;5.40;99.90;;;;;;20874350;28;19917;-78
2024/01/17 23:57:14;;;;;;;;;;;5.40;99.90;;;;;;20891082;28;20392;-79
